Time;durP1;ratioP1;P1;durP2;ratioP2;P2;SDS_P1;SDS_P2;PMS_P1;PMS_P2;Temp;Humidity;BMP_temperature;BMP_pressure;BME280_temperature;BME280_humidity;BME280_pressure;Samples;Min_cycle;Max_cycle;Signal;HPM_P1;HPM_P2
2021/05/24 00:00:08;;;;;;;7.40;1.15;;;;;;;12.53;55.53;99580.28;5072510;28;20032;-48
2021/05/24 00:02:34;;;;;;;2.05;1.30;;;;;;;12.39;55.79;99573.50;5072241;28;20472;-45
2021/05/24 00:05:00;;;;;;;2.78;1.17;;;;;;;12.34;55.87;99570.41;5073059;28;20032;-49
2021/05/24 00:07:26;;;;;;;2.95;1.10;;;;;;;12.36;55.97;99589.91;5072534;28;20358;-45
2021/05/24 00:09:51;;;;;;;3.20;1.33;;;;;;;12.14;55.79;99548.94;5071978;28;20588;-51
2021/05/24 00:12:25;;;;;;;3.25;1.48;;;;;;;12.47;56.31;99603.16;5071048;28;20032;-49
2021/05/24 00:14:51;;;;;;;5.15;1.40;;;;;;;12.48;56.16;99604.03;5072216;28;20081;-45
2021/05/24 00:17:16;;;;;;;1.88;1.10;;;;;;;12.05;56.19;99530.97;5071254;28;20397;-45
2021/05/24 00:19:42;;;;;;;3.15;1.40;;;;;;;12.43;56.22;99607.13;5071845;28;20040;-48
2021/05/24 00:22:07;;;;;;;4.30;1.40;;;;;;;12.05;56.48;99550.63;5072015;28;20115;-45
2021/05/24 00:24:33;;;;;;;2.92;1.45;;;;;;;12.34;56.73;99608.00;5072359;28;20458;-52
2021/05/24 00:26:58;;;;;;;3.08;1.23;;;;;;;12.24;56.90;99609.81;5071992;28;20032;-49
2021/05/24 00:29:25;;;;;;;5.13;1.30;;;;;;;12.23;57.09;99617.03;5072228;28;20064;-51
2021/05/24 00:32:03;;;;;;;2.45;1.38;;;;;;;11.82;57.13;99554.50;5072176;28;20033;-55
2021/05/24 00:34:29;;;;;;;5.57;1.27;;;;;;;12.15;57.32;99624.91;5072178;28;20043;-48
2021/05/24 00:36:55;;;;;;;5.07;1.45;;;;;;;11.95;57.42;99591.81;5070896;28;20029;-48
2021/05/24 00:39:22;;;;;;;2.88;1.08;;;;;;;12.10;57.80;99636.06;5071814;28;20548;-49
2021/05/24 00:41:47;;;;;;;3.22;1.20;;;;;;;11.92;57.82;99617.91;5060162;28;20094;-46
2021/05/24 00:44:13;;;;;;;4.13;1.10;;;;;;;12.00;57.99;99632.47;5051950;28;20080;-45
2021/05/24 00:46:39;;;;;;;2.22;1.10;;;;;;;11.98;58.10;99639.81;5051957;28;20435;-46
2021/05/24 00:49:06;;;;;;;5.13;1.23;;;;;;;11.90;58.40;99636.00;5051577;28;20036;-47
2021/05/24 00:51:32;;;;;;;3.78;1.30;;;;;;;11.86;58.62;99637.25;5052097;28;20041;-49
2021/05/24 00:53:59;;;;;;;6.40;1.20;;;;;;;11.82;58.75;99632.28;5052067;28;20054;-47
2021/05/24 00:56:25;;;;;;;6.70;1.30;;;;;;;11.85;58.78;99643.59;5049056;28;20435;-46
2021/05/24 00:58:52;;;;;;;6.38;1.20;;;;;;;11.75;58.74;99616.75;5048918;28;20066;-49
2021/05/24 01:01:17;;;;;;;1.95;1.17;;;;;;;11.80;59.04;99627.06;5049270;28;20033;-49
2021/05/24 01:03:43;;;;;;;4.05;1.15;;;;;;;11.67;59.07;99608.53;5048065;28;20564;-47
2021/05/24 01:06:08;;;;;;;4.07;1.42;;;;;;;11.75;59.19;99629.31;5049191;28;20040;-47
2021/05/24 01:08:34;;;;;;;3.05;1.15;;;;;;;11.60;58.95;99604.69;5049131;28;20029;-48
2021/05/24 01:10:59;;;;;;;3.58;1.20;;;;;;;11.69;59.26;99619.97;5049531;28;20040;-46
2021/05/24 01:13:26;;;;;;;4.25;1.13;;;;;;;11.32;59.48;99562.41;5050329;28;20033;-48
2021/05/24 01:15:51;;;;;;;3.80;1.15;;;;;;;11.65;59.45;99613.19;5051022;28;20037;-48
2021/05/24 01:18:17;;;;;;;2.55;1.20;;;;;;;11.53;59.44;99609.75;5050749;28;20368;-45
2021/05/24 01:20:43;;;;;;;3.67;1.45;;;;;;;11.55;59.58;99615.81;5051137;28;20036;-46
2021/05/24 01:23:17;;;;;;;4.68;1.10;;;;;;;11.57;59.26;99621.91;5050902;28;20083;-49
2021/05/24 01:25:47;;;;;;;3.72;1.02;;;;;;;11.58;59.88;99620.94;5050643;28;20090;-47
2021/05/24 01:28:15;;;;;;;4.05;1.20;;;;;;;11.58;59.82;99626.31;5050986;28;20032;-48
2021/05/24 01:30:42;;;;;;;4.10;1.50;;;;;;;11.57;59.62;99626.41;5051002;28;20085;-50
2021/05/24 01:33:09;;;;;;;3.95;1.10;;;;;;;11.15;59.49;99553.16;5050950;28;20029;-49
2021/05/24 01:35:39;;;;;;;2.63;1.27;;;;;;;11.54;60.21;99619.50;5051019;28;20068;-48
2021/05/24 01:38:06;;;;;;;4.65;1.38;;;;;;;11.55;59.66;99618.50;5050721;28;20402;-47
2021/05/24 01:40:33;;;;;;;5.88;1.20;;;;;;;11.55;60.22;99644.47;5051072;28;20037;-46
2021/05/24 01:43:00;;;;;;;1.67;0.90;;;;;;;11.56;59.94;99625.56;5050959;28;20395;-44
2021/05/24 01:45:27;;;;;;;4.32;1.35;;;;;;;11.59;59.78;99628.00;5050647;28;20044;-46
2021/05/24 01:47:54;;;;;;;3.17;1.40;;;;;;;11.50;59.66;99607.34;5050616;28;20037;-46
2021/05/24 01:50:21;;;;;;;3.70;1.50;;;;;;;11.60;59.83;99624.34;5049512;28;20043;-47
2021/05/24 01:52:46;;;;;;;1.83;1.23;;;;;;;11.51;59.99;99614.41;5050821;28;20091;-44
2021/05/24 01:55:12;;;;;;;3.40;1.27;;;;;;;11.63;59.68;99626.75;5050092;28;20036;-48
2021/05/24 01:57:38;;;;;;;3.35;1.23;;;;;;;11.62;59.24;99630.41;5050017;28;20060;-50
2021/05/24 02:00:16;;;;;;;4.05;1.38;;;;;;;11.69;59.61;99636.06;5051060;28;20037;-47
2021/05/24 02:02:43;;;;;;;3.78;1.20;;;;;;;11.67;59.88;99632.66;5050330;28;20059;-46
2021/05/24 02:05:10;;;;;;;3.47;1.10;;;;;;;11.71;59.65;99641.28;5049908;28;20508;-52
2021/05/24 02:07:36;;;;;;;2.97;1.30;;;;;;;11.74;59.66;99641.00;5050293;28;20505;-45
2021/05/24 02:10:04;;;;;;;6.45;1.27;;;;;;;11.92;59.39;99654.63;5049687;28;20075;-46
2021/05/24 02:12:30;;;;;;;5.18;1.40;;;;;;;12.02;58.67;99633.22;5049902;28;20068;-44
2021/05/24 02:14:55;;;;;;;1.83;1.10;;;;;;;12.30;58.05;99645.00;5049296;28;20516;-49
2021/05/24 02:17:21;;;;;;;4.35;1.10;;;;;;;12.47;57.52;99645.31;5049568;28;20033;-45
2021/05/24 02:19:48;;;;;;;3.08;1.02;;;;;;;12.64;57.04;99652.63;5049669;28;20439;-45
2021/05/24 02:22:15;;;;;;;4.30;1.02;;;;;;;12.86;56.49;99658.69;5049577;28;20078;-48
2021/05/24 02:24:40;;;;;;;1.67;0.80;;;;;;;13.11;55.80;99650.19;5049654;28;20037;-48
2021/05/24 02:27:06;;;;;;;2.83;0.98;;;;;;;13.52;54.82;99661.56;5050038;28;20095;-46
2021/05/24 02:29:31;;;;;;;5.45;1.20;;;;;;;13.95;53.66;99664.63;5049247;28;20051;-45
2021/05/24 02:31:57;;;;;;;0.90;0.80;;;;;;;13.97;52.65;99627.66;5048013;28;20044;-45
2021/05/24 02:34:22;;;;;;;3.70;1.35;;;;;;;14.33;52.25;99653.78;5049217;28;20033;-44
2021/05/24 02:36:48;;;;;;;6.45;1.10;;;;;;;14.37;51.73;99668.63;5049063;28;20489;-46
2021/05/24 02:39:13;;;;;;;7.80;1.20;;;;;;;13.92;51.65;99598.50;5049185;28;20475;-47
2021/05/24 02:41:39;;;;;;;2.17;1.25;;;;;;;14.25;51.75;99664.47;5049784;28;20052;-45
2021/05/24 02:44:05;;;;;;;5.72;1.35;;;;;;;14.11;51.90;99677.44;5049862;28;20532;-45
2021/05/24 02:46:32;;;;;;;6.03;1.52;;;;;;;14.02;52.22;99678.34;5049343;28;20122;-47
2021/05/24 02:48:57;;;;;;;3.45;1.33;;;;;;;13.87;52.70;99680.69;5049787;28;20033;-48
2021/05/24 02:51:23;;;;;;;4.05;1.15;;;;;;;13.75;52.97;99685.41;5049221;28;20478;-47
2021/05/24 02:53:49;;;;;;;3.45;1.20;;;;;;;13.63;53.05;99674.00;5049110;28;20036;-44
2021/05/24 02:56:15;;;;;;;2.70;1.00;;;;;;;13.60;53.27;99679.66;5049327;28;20039;-47
2021/05/24 02:58:40;;;;;;;4.63;1.05;;;;;;;13.64;53.04;99681.91;5050009;28;20454;-54
2021/05/24 03:01:06;;;;;;;2.95;1.10;;;;;;;13.49;53.18;99669.91;5049205;28;20051;-48
2021/05/24 03:03:33;;;;;;;2.65;1.20;;;;;;;13.59;53.08;99689.56;5049162;28;20451;-49
2021/05/24 03:06:03;;;;;;;2.97;1.00;;;;;;;13.67;53.44;99696.91;5049582;28;20086;-47
2021/05/24 03:08:29;;;;;;;2.13;1.00;;;;;;;13.72;52.95;99700.00;5049232;28;20036;-46
2021/05/24 03:10:54;;;;;;;3.95;1.30;;;;;;;13.81;53.04;99700.97;5049251;28;20033;-47
2021/05/24 03:13:20;;;;;;;4.25;1.25;;;;;;;13.82;52.53;99678.44;5049089;28;20025;-49
2021/05/24 03:15:45;;;;;;;9.82;1.15;;;;;;;13.32;52.17;99561.25;5049856;28;20033;-47
2021/05/24 03:18:11;;;;;;;3.80;1.00;;;;;;;14.36;51.14;99675.00;5049877;28;20041;-50
2021/05/24 03:20:36;;;;;;;2.42;0.90;;;;;;;15.02;49.94;99674.78;5049178;28;20044;-48
2021/05/24 03:23:02;;;;;;;5.40;1.00;;;;;;;15.71;48.10;99658.69;5047887;28;20029;-45
2021/05/24 03:25:28;;;;;;;1.05;0.60;;;;;;;16.57;46.21;99674.88;5049159;28;20043;-46
2021/05/24 03:27:53;;;;;;;3.55;1.10;;;;;;;17.51;44.26;99657.41;5047916;28;20040;-45
2021/05/24 03:30:19;;;;;;;2.13;1.00;;;;;;;18.57;41.90;99667.13;5047796;28;20578;-50
2021/05/24 03:32:45;;;;;;;1.80;1.10;;;;;;;19.46;39.91;99674.69;5048859;28;20033;-47
2021/05/24 03:35:11;;;;;;;1.40;0.85;;;;;;;20.18;37.68;99650.56;5049324;28;20501;-47
2021/05/24 03:37:37;;;;;;;2.47;1.02;;;;;;;21.04;36.14;99665.28;5049294;28;20029;-49
2021/05/24 03:40:07;;;;;;;1.17;0.90;;;;;;;21.73;33.63;99653.84;5048840;28;20037;-47
2021/05/24 03:42:33;;;;;;;4.07;1.10;;;;;;;22.22;33.25;99657.38;5049258;28;20061;-49
2021/05/24 03:45:01;;;;;;;3.80;1.30;;;;;;;22.83;32.37;99655.66;5048265;28;20134;-46
2021/05/24 03:47:26;;;;;;;2.22;0.90;;;;;;;23.22;31.10;99614.91;5053100;28;20037;-47
2021/05/24 03:49:52;;;;;;;3.50;0.82;;;;;;;24.08;29.93;99642.22;5052801;28;20458;-47
2021/05/24 03:52:18;;;;;;;3.88;1.20;;;;;;;24.77;28.79;99669.84;5052565;28;20075;-49
2021/05/24 03:54:44;;;;;;;3.63;0.90;;;;;;;25.26;27.47;99643.75;5053013;28;20086;-48
2021/05/24 03:57:11;;;;;;;4.22;0.85;;;;;;;25.93;26.49;99648.56;5053054;28;20048;-49
2021/05/24 03:59:37;;;;;;;2.05;0.90;;;;;;;26.65;25.26;99647.81;5052278;28;20052;-53
2021/05/24 04:02:03;;;;;;;2.42;1.00;;;;;;;27.22;24.41;99653.88;5052207;28;20029;-45
2021/05/24 04:04:28;;;;;;;5.80;1.02;;;;;;;27.75;23.66;99656.75;5052255;28;20041;-45
2021/05/24 04:06:57;;;;;;;2.65;0.80;;;;;;;28.21;22.42;99654.13;5052318;28;20032;-47
2021/05/24 04:09:23;;;;;;;2.92;0.88;;;;;;;28.42;22.12;99649.03;5052303;28;20072;-50
2021/05/24 04:11:48;;;;;;;0.90;0.88;;;;;;;28.95;21.36;99663.47;5052010;28;20057;-48
2021/05/24 04:14:14;;;;;;;1.20;1.00;;;;;;;29.69;20.37;99664.31;5052521;28;20483;-50
2021/05/24 04:16:39;;;;;;;2.17;0.90;;;;;;;30.22;19.63;99642.66;5052057;28;20036;-48
2021/05/24 04:19:11;;;;;;;3.13;0.90;;;;;;;30.92;19.11;99700.00;5052035;28;20443;-46
2021/05/24 04:21:41;;;;;;;3.63;0.98;;;;;;;31.53;17.80;99720.13;5052268;28;20040;-46
2021/05/24 04:24:07;;;;;;;3.55;1.00;;;;;;;31.75;18.08;99733.00;5051763;28;20044;-47
2021/05/24 04:26:33;;;;;;;2.40;0.90;;;;;;;32.12;17.27;99732.13;5051951;28;20052;-47
2021/05/24 04:28:58;;;;;;;3.00;0.95;;;;;;;32.46;16.81;99731.72;5052212;28;20037;-46
2021/05/24 04:31:24;;;;;;;5.35;1.05;;;;;;;32.35;16.88;99749.44;5051613;28;20458;-51
2021/05/24 04:33:50;;;;;;;4.22;0.93;;;;;;;32.55;16.21;99775.50;5051737;28;20122;-47
2021/05/24 04:36:15;;;;;;;1.90;0.88;;;;;;;32.64;15.83;99801.63;5052456;28;20124;-45
2021/05/24 04:38:41;;;;;;;2.42;1.20;;;;;;;32.89;15.67;99797.28;5051444;28;20052;-49
2021/05/24 04:41:06;;;;;;;4.82;1.10;;;;;;;33.20;15.28;99789.00;5051526;28;20401;-46
2021/05/24 04:43:33;;;;;;;6.97;1.40;;;;;;;33.49;15.27;99775.44;5051791;28;20041;-50
2021/05/24 04:45:58;;;;;;;3.20;1.08;;;;;;;33.81;14.56;99792.91;5051855;28;20048;-48
2021/05/24 04:48:24;;;;;;;2.50;1.00;;;;;;;34.15;14.14;99775.59;5051495;28;20033;-49
2021/05/24 04:50:49;;;;;;;3.95;1.20;;;;;;;34.68;13.64;99776.25;5051623;28;20074;-51
2021/05/24 04:53:15;;;;;;;3.20;1.35;;;;;;;35.39;13.52;99789.94;5052302;28;20112;-50
2021/05/24 04:55:41;;;;;;;3.92;1.00;;;;;;;36.03;12.87;99776.03;5051467;28;20067;-52
2021/05/24 04:58:06;;;;;;;2.47;0.90;;;;;;;36.34;12.23;99807.13;5050671;28;20482;-47
2021/05/24 05:00:33;;;;;;;6.95;1.40;;;;;;;36.39;12.11;99817.38;5051566;28;20437;-50
2021/05/24 05:03:00;;;;;;;1.48;0.70;;;;;;;36.62;11.62;99801.78;5051549;28;20037;-47
2021/05/24 05:05:25;;;;;;;3.00;1.13;;;;;;;37.03;11.10;99819.94;5050877;28;20106;-47
2021/05/24 05:07:51;;;;;;;4.88;1.23;;;;;;;37.35;11.43;99814.69;5051302;28;20533;-48
2021/05/24 05:10:17;;;;;;;3.13;1.48;;;;;;;37.76;11.11;99811.22;5051621;28;20037;-50
2021/05/24 05:12:42;;;;;;;4.47;1.00;;;;;;;38.26;10.78;99814.50;5051649;28;20044;-50
2021/05/24 05:15:08;;;;;;;3.00;1.00;;;;;;;38.53;10.22;99810.88;5050661;28;20206;-55
2021/05/24 05:17:34;;;;;;;4.13;1.02;;;;;;;39.25;9.73;99822.41;5050830;28;20041;-49
2021/05/24 05:19:59;;;;;;;3.60;1.23;;;;;;;39.97;9.27;99827.34;5051060;28;20032;-47
2021/05/24 05:22:25;;;;;;;2.83;1.10;;;;;;;40.34;8.89;99822.44;5051275;28;20510;-47
2021/05/24 05:24:51;;;;;;;3.35;1.10;;;;;;;40.63;8.88;99840.66;5050621;28;20069;-48
2021/05/24 05:27:16;;;;;;;2.88;1.60;;;;;;;40.66;8.50;99831.56;5051046;28;20124;-48
2021/05/24 05:29:42;;;;;;;3.00;1.20;;;;;;;40.62;8.55;99844.59;5050315;28;20071;-50
2021/05/24 05:32:09;;;;;;;1.63;0.93;;;;;;;40.56;8.37;99843.13;5050169;28;20036;-48
2021/05/24 05:34:34;;;;;;;2.33;1.05;;;;;;;40.58;8.65;99847.22;5050742;28;20040;-47
2021/05/24 05:37:00;;;;;;;3.17;0.80;;;;;;;40.61;8.00;99835.34;5050216;28;20743;-52
2021/05/24 05:39:26;;;;;;;3.33;1.20;;;;;;;40.88;7.95;99863.50;5050291;28;20407;-50
2021/05/24 05:41:51;;;;;;;4.05;1.00;;;;;;;40.84;7.47;99846.47;5050703;28;20203;-51
2021/05/24 05:44:17;;;;;;;3.13;1.00;;;;;;;41.22;7.59;99849.84;5050818;28;20132;-50
2021/05/24 05:46:43;;;;;;;2.95;1.20;;;;;;;42.05;7.44;99859.16;5050087;28;20053;-53
2021/05/24 05:49:08;;;;;;;3.30;0.90;;;;;;;42.90;6.82;99870.66;5050265;28;20037;-51
2021/05/24 05:51:34;;;;;;;4.20;1.00;;;;;;;43.85;6.13;99869.38;5050908;28;20060;-53
2021/05/24 05:54:00;;;;;;;1.33;1.00;;;;;;;44.28;6.25;99830.53;5050065;28;20040;-51
2021/05/24 05:56:26;;;;;;;5.65;1.35;;;;;;;44.73;5.83;99854.13;5050329;28;20032;-49
2021/05/24 05:58:51;;;;;;;4.50;1.23;;;;;;;44.90;5.70;99847.41;5050347;28;20140;-54
2021/05/24 06:01:17;;;;;;;2.53;1.05;;;;;;;45.29;5.76;99856.22;5057867;28;20110;-48
2021/05/24 06:03:42;;;;;;;2.42;1.15;;;;;;;45.72;5.39;99844.53;5058985;28;20032;-48
2021/05/24 06:06:09;;;;;;;4.40;1.40;;;;;;;45.92;5.21;99814.34;5059374;28;20464;-50
2021/05/24 06:08:34;;;;;;;4.45;1.13;;;;;;;46.24;5.32;99848.31;5057041;28;20126;-49
2021/05/24 06:11:00;;;;;;;2.10;1.10;;;;;;;45.78;5.51;99811.97;5058948;28;20032;-47
2021/05/24 06:13:26;;;;;;;4.00;1.40;;;;;;;45.68;5.68;99847.22;5059007;28;20113;-48
2021/05/24 06:15:51;;;;;;;3.45;1.40;;;;;;;45.55;5.60;99845.69;5057580;28;20135;-54
2021/05/24 06:18:17;;;;;;;2.28;1.15;;;;;;;45.07;5.57;99842.66;5059541;28;20725;-48
2021/05/24 06:20:45;;;;;;;4.07;1.25;;;;;;;44.62;5.82;99842.53;5058219;28;20040;-50
2021/05/24 06:23:11;;;;;;;3.53;1.23;;;;;;;44.28;6.37;99837.00;5057286;28;20021;-48
2021/05/24 06:25:37;;;;;;;2.53;1.02;;;;;;;43.62;6.60;99838.75;5059439;28;20032;-49
2021/05/24 06:28:03;;;;;;;6.95;1.45;;;;;;;43.89;6.69;99836.47;5058026;28;20557;-51
2021/05/24 06:30:28;;;;;;;5.63;1.20;;;;;;;44.64;5.92;99819.59;5063407;28;20127;-49
2021/05/24 06:32:54;;;;;;;5.78;1.48;;;;;;;46.03;5.29;99820.28;5066216;28;20044;-48
2021/05/24 06:35:21;;;;;;;3.42;1.20;;;;;;;47.26;4.90;99828.72;5067802;28;20075;-52
2021/05/24 06:37:47;;;;;;;6.95;1.45;;;;;;;48.03;4.59;99833.03;5061411;28;20025;-45
2021/05/24 06:40:13;;;;;;;2.45;1.10;;;;;;;48.27;4.40;99829.78;5048738;28;20040;-52
2021/05/24 06:42:40;;;;;;;3.50;1.10;;;;;;;48.94;3.94;99821.81;5047366;28;20049;-49
2021/05/24 06:45:06;;;;;;;4.03;1.40;;;;;;;49.17;3.78;99823.75;5048639;28;20045;-53
2021/05/24 06:47:32;;;;;;;2.65;1.10;;;;;;;48.94;3.94;99833.19;5050996;28;20034;-51
2021/05/24 06:49:57;;;;;;;1.80;1.00;;;;;;;48.36;3.97;99814.50;5064199;28;20131;-48
2021/05/24 06:52:23;;;;;;;1.40;1.10;;;;;;;48.80;3.95;99827.34;5057519;28;20440;-54
2021/05/24 06:54:48;;;;;;;3.67;1.10;;;;;;;48.98;3.61;99822.72;5063992;28;20082;-51
2021/05/24 06:57:14;;;;;;;3.75;1.13;;;;;;;49.36;3.45;99833.28;5069775;28;20032;-48
2021/05/24 06:59:39;;;;;;;2.13;1.23;;;;;;;49.61;3.59;99819.38;5069256;28;20087;-51
2021/05/24 07:02:05;;;;;;;2.25;1.10;;;;;;;50.13;2.97;99795.84;5069487;28;20131;-52
2021/05/24 07:04:31;;;;;;;2.58;1.10;;;;;;;50.48;2.82;99822.13;5067510;28;20033;-53
2021/05/24 07:06:57;;;;;;;2.80;1.10;;;;;;;50.58;2.72;99829.88;5051548;28;20043;-47
2021/05/24 07:09:22;;;;;;;1.38;1.27;;;;;;;49.69;3.56;99814.56;5048443;28;20102;-52
2021/05/24 07:11:48;;;;;;;1.23;1.02;;;;;;;49.10;3.40;99813.09;5047686;28;20041;-48
2021/05/24 07:14:13;;;;;;;2.00;1.23;;;;;;;49.19;3.48;99827.00;5049183;28;20043;-48
2021/05/24 07:16:39;;;;;;;4.05;1.38;;;;;;;49.73;3.28;99845.88;5050034;28;20037;-45
2021/05/24 07:19:05;;;;;;;2.20;0.95;;;;;;;50.43;3.08;99845.28;5048712;28;20036;-44
2021/05/24 07:21:30;;;;;;;1.77;0.98;;;;;;;50.77;3.07;99851.63;5052067;28;20033;-44
2021/05/24 07:23:56;;;;;;;2.58;1.10;;;;;;;50.64;2.61;99814.06;5053455;28;20533;-47
2021/05/24 07:26:21;;;;;;;1.40;1.17;;;;;;;50.97;2.29;99823.63;5053754;28;20044;-45
2021/05/24 07:28:47;;;;;;;1.85;1.30;;;;;;;51.59;2.59;99849.47;5062619;28;20035;-47
2021/05/24 07:31:12;;;;;;;1.70;1.58;;;;;;;51.35;2.35;99843.31;5067209;28;20055;-46
2021/05/24 07:33:38;;;;;;;2.22;1.50;;;;;;;50.83;2.70;99830.06;5073376;28;20120;-49
2021/05/24 07:36:04;;;;;;;4.25;1.42;;;;;;;50.84;2.87;99847.97;5072242;28;20448;-52
2021/05/24 07:38:30;;;;;;;2.70;1.55;;;;;;;51.05;2.76;99846.44;5073629;28;20024;-51
2021/05/24 07:40:56;;;;;;;2.55;1.60;;;;;;;51.82;2.41;99857.66;5072914;28;20106;-50
2021/05/24 07:43:21;;;;;;;3.60;2.00;;;;;;;50.65;2.96;99832.00;5073424;28;20525;-48
2021/05/24 07:45:47;;;;;;;4.30;2.30;;;;;;;49.94;3.08;99854.66;5073452;28;20044;-50
2021/05/24 07:48:12;;;;;;;2.90;1.67;;;;;;;48.50;4.28;99863.00;5072867;28;20032;-47
2021/05/24 07:50:38;;;;;;;4.40;1.65;;;;;;;48.39;3.87;99870.53;5072482;28;20497;-50
2021/05/24 07:53:03;;;;;;;1.23;1.10;;;;;;;49.09;3.43;99890.22;5072103;28;20036;-50
2021/05/24 07:55:29;;;;;;;2.25;1.38;;;;;;;49.08;3.26;99892.25;5071227;28;20470;-46
2021/05/24 07:57:54;;;;;;;1.35;1.20;;;;;;;48.26;3.55;99872.75;5071467;28;20043;-50
2021/05/24 08:00:21;;;;;;;3.00;1.08;;;;;;;46.41;4.50;99875.41;5072709;28;20039;-47
2021/05/24 08:02:48;;;;;;;3.13;1.20;;;;;;;45.99;4.99;99907.06;5072570;28;20024;-50
2021/05/24 08:05:14;;;;;;;7.20;1.10;;;;;;;46.04;5.10;99889.81;5072625;28;20040;-48
2021/05/24 08:07:40;;;;;;;4.28;1.20;;;;;;;45.54;5.07;99890.06;5072297;28;20033;-49
2021/05/24 08:10:09;;;;;;;2.88;1.10;;;;;;;44.94;5.49;99876.63;5072544;28;20119;-47
2021/05/24 08:12:37;;;;;;;7.28;1.77;;;;;;;44.83;5.48;99901.66;5072591;28;20059;-48
2021/05/24 08:15:11;;;;;;;1.38;0.80;;;;;;;43.73;6.15;99878.63;5072598;28;20039;-49
2021/05/24 08:17:38;;;;;;;1.30;0.80;;;;;;;41.92;7.21;99922.00;5072200;28;20033;-48
2021/05/24 08:20:06;;;;;;;3.08;0.73;;;;;;;38.80;8.86;99928.66;5072738;28;20060;-51
2021/05/24 08:22:32;;;;;;;2.25;0.70;;;;;;;35.69;10.96;99843.72;5072465;28;20047;-48
2021/05/24 08:24:57;;;;;;;2.50;0.88;;;;;;;33.88;12.60;99904.50;5072135;28;20029;-54
2021/05/24 08:27:23;;;;;;;0.45;0.40;;;;;;;32.11;14.46;99929.84;5072928;28;20469;-50
2021/05/24 08:29:48;;;;;;;0.98;0.50;;;;;;;30.91;15.32;99919.47;5072403;28;20040;-49
2021/05/24 08:32:15;;;;;;;1.85;1.15;;;;;;;29.96;16.24;99898.16;5070718;28;20498;-49
2021/05/24 08:34:40;;;;;;;1.17;0.60;;;;;;;29.69;16.94;99939.41;5072024;28;20038;-49
2021/05/24 08:37:06;;;;;;;4.28;0.63;;;;;;;29.23;17.18;99921.69;5072279;28;20466;-49
2021/05/24 08:39:31;;;;;;;3.15;0.80;;;;;;;28.75;18.03;99932.00;5072054;28;20040;-44
2021/05/24 08:41:58;;;;;;;6.22;0.90;;;;;;;28.38;18.80;99928.69;5068732;28;20072;-46
2021/05/24 08:44:25;;;;;;;1.55;0.60;;;;;;;28.10;19.17;99931.00;5063589;28;20497;-44
2021/05/24 08:46:51;;;;;;;1.33;0.70;;;;;;;27.74;19.59;99921.88;5059485;28;20025;-44
2021/05/24 08:49:17;;;;;;;3.75;0.75;;;;;;;27.29;19.84;99907.47;5060508;28;20037;-51
2021/05/24 08:51:42;;;;;;;3.33;0.80;;;;;;;27.08;20.43;99937.13;5062064;28;20401;-52
2021/05/24 08:54:08;;;;;;;3.13;0.70;;;;;;;26.91;20.47;99903.09;5059929;28;20059;-47
2021/05/24 08:56:34;;;;;;;1.10;0.70;;;;;;;26.91;20.32;99931.41;5058981;28;20037;-47
2021/05/24 08:59:01;;;;;;;3.03;0.70;;;;;;;26.86;20.41;99919.44;5066838;28;20082;-55
2021/05/24 09:01:27;;;;;;;1.90;0.50;;;;;;;26.70;20.25;99907.13;5062688;28;20501;-48
2021/05/24 09:04:02;;;;;;;2.03;0.60;;;;;;;26.88;20.26;99934.59;5060661;28;20033;-45
2021/05/24 09:06:39;;;;;;;;;;;;;;;27.45;18.70;99924.38;5059423;28;20115;-51
2021/05/24 09:09:18;;;;;;;2.53;0.65;;;;;;;26.96;19.54;99924.41;5060418;28;19947;-47
2021/05/24 09:11:45;;;;;;;2.78;0.50;;;;;;;26.41;20.16;99915.88;5061952;28;20125;-47
2021/05/24 09:14:13;;;;;;;0.93;0.52;;;;;;;26.08;20.65;99930.72;5057162;28;20076;-46
2021/05/24 09:16:38;;;;;;;5.32;0.90;;;;;;;25.91;21.02;99920.28;5051123;28;20136;-49
2021/05/24 09:19:19;;;;;;;1.15;0.60;;;;;;;25.94;21.23;99932.75;5050988;28;20115;-46
2021/05/24 09:21:49;;;;;;;2.78;0.63;;;;;;;25.61;21.94;99909.97;5056602;28;20056;-46
2021/05/24 09:24:20;;;;;;;1.75;0.90;;;;;;;25.64;21.86;99933.34;5061815;28;20131;-48
2021/05/24 09:26:45;;;;;;;3.58;0.95;;;;;;;25.57;21.78;99892.28;5059424;28;20041;-47
2021/05/24 09:29:11;;;;;;;5.13;0.90;;;;;;;25.86;22.03;99911.91;5055663;28;20037;-50
2021/05/24 09:31:37;;;;;;;3.80;0.95;;;;;;;25.86;21.91;99911.91;5050908;28;20048;-49
2021/05/24 09:34:05;;;;;;;2.17;1.15;;;;;;;25.70;22.22;99915.19;5048339;28;20036;-50
2021/05/24 09:36:32;;;;;;;2.92;0.88;;;;;;;25.57;22.27;99914.22;5059405;28;20060;-56
2021/05/24 09:39:05;;;;;;;4.57;0.73;;;;;;;25.80;22.56;99926.47;5058273;28;20093;-50
2021/05/24 09:41:43;;;;;;;3.75;0.80;;;;;;;26.02;21.55;99906.91;5059641;28;20083;-53
2021/05/24 09:44:18;;;;;;;1.40;0.70;;;;;;;26.09;21.04;99880.28;5057432;28;20044;-48
2021/05/24 09:46:44;;;;;;;1.73;0.63;;;;;;;26.31;20.85;99915.56;5055566;28;20037;-48
2021/05/24 09:49:12;;;;;;;1.35;0.55;;;;;;;26.12;21.56;99920.97;5058689;28;20611;-49
2021/05/24 09:51:38;;;;;;;6.25;0.70;;;;;;;25.77;21.89;99897.63;5053072;28;20037;-46
2021/05/24 09:54:06;;;;;;;5.03;0.80;;;;;;;25.68;22.52;99914.56;5064190;28;20080;-45
2021/05/24 09:56:37;;;;;;;1.75;1.02;;;;;;;25.32;22.99;99927.81;5059109;28;20042;-51
2021/05/24 09:59:21;;;;;;;5.75;1.30;;;;;;;24.86;23.33;99905.06;5058078;28;20041;-51
2021/05/24 10:01:54;;;;;;;1.45;0.75;;;;;;;24.74;24.11;99900.22;5053133;28;20025;-49
2021/05/24 10:04:25;;;;;;;2.22;0.90;;;;;;;24.87;24.14;99920.44;5064168;28;20117;-48
2021/05/24 10:06:52;;;;;;;1.02;0.80;;;;;;;24.85;24.14;99911.63;5066923;28;20074;-53
2021/05/24 10:09:18;;;;;;;1.02;0.60;;;;;;;24.72;24.14;99909.72;5068206;28;20066;-52
2021/05/24 10:11:49;;;;;;;5.43;0.50;;;;;;;24.43;24.92;99906.41;5054067;28;20032;-47
2021/05/24 10:14:23;;;;;;;0.75;0.60;;;;;;;24.13;25.04;99905.00;5057849;28;20036;-50
2021/05/24 10:16:51;;;;;;;1.52;0.65;;;;;;;24.17;24.60;99906.25;5056913;28;20107;-47
2021/05/24 10:19:18;;;;;;;2.80;0.50;;;;;;;24.33;25.02;99910.44;5065663;28;20040;-46
2021/05/24 10:21:48;;;;;;;0.65;0.50;;;;;;;24.55;24.80;99903.84;5052684;28;20095;-46
2021/05/24 10:24:15;;;;;;;2.75;0.55;;;;;;;24.82;24.30;99906.53;5061951;28;20048;-47
2021/05/24 10:26:42;;;;;;;1.83;0.63;;;;;;;24.86;23.74;99872.22;5050989;28;20037;-49
2021/05/24 10:29:09;;;;;;;4.40;0.60;;;;;;;24.64;23.80;99842.38;5064347;28;20047;-49
2021/05/24 10:31:35;;;;;;;3.00;0.82;;;;;;;24.94;23.96;99899.34;5052651;28;20029;-47
2021/05/24 10:34:14;;;;;;;1.13;0.80;;;;;;;25.12;23.93;99895.06;5062212;28;20378;-49
2021/05/24 10:36:41;;;;;;;2.45;0.85;;;;;;;25.13;23.33;99894.81;5059990;28;20405;-46
2021/05/24 10:39:13;;;;;;;2.78;0.70;;;;;;;25.23;23.74;99897.09;5054387;28;20037;-49
2021/05/24 10:41:45;;;;;;;0.98;0.57;;;;;;;24.97;23.91;99885.22;5065128;28;20422;-47
2021/05/24 10:44:12;;;;;;;2.80;1.83;;;;;;;24.97;24.30;99912.59;5055968;28;20102;-49
2021/05/24 10:46:38;;;;;;;2.20;0.70;;;;;;;24.79;24.35;99902.34;5057562;28;20076;-46
2021/05/24 10:49:05;;;;;;;1.45;0.70;;;;;;;24.17;24.54;99829.66;5063603;28;20060;-55
2021/05/24 10:52:08;;;;;;;2.78;0.90;;;;;;;24.37;24.87;99905.38;5052522;28;20044;-47
2021/05/24 10:54:38;;;;;;;1.65;0.70;;;;;;;24.06;24.92;99891.31;5058262;28;20043;-56
2021/05/24 10:57:04;;;;;;;3.38;0.70;;;;;;;24.04;24.83;99907.09;5064152;28;20042;-56
2021/05/24 10:59:38;;;;;;;1.92;0.52;;;;;;;24.04;24.96;99911.72;5053012;28;20109;-43
2021/05/24 11:02:15;;;;;;;2.47;0.68;;;;;;;23.99;24.43;99911.47;5061824;28;20039;-53
2021/05/24 11:05:02;;;;;;;0.75;0.50;;;;;;;23.96;24.53;99900.97;5059586;28;20033;-49
2021/05/24 11:07:28;;;;;;;2.67;0.55;;;;;;;23.72;24.45;99908.72;5065785;28;20037;-52
2021/05/24 11:10:23;;;;;;;2.08;0.55;;;;;;;23.60;24.72;99901.13;5054081;28;20032;-48
2021/05/24 11:12:55;;;;;;;3.72;0.80;;;;;;;23.47;25.57;99901.13;5056565;28;20060;-49
2021/05/24 11:15:21;;;;;;;1.67;0.60;;;;;;;23.44;25.83;99913.31;5065811;28;20036;-44
2021/05/24 11:17:59;;;;;;;0.60;0.52;;;;;;;23.61;25.87;99902.81;5053256;28;20043;-48
2021/05/24 11:20:50;;;;;;;1.23;0.90;;;;;;;23.80;25.77;99909.38;5062352;28;20115;-47
2021/05/24 11:23:36;;;;;;;3.60;0.93;;;;;;;23.82;25.56;99911.06;5051658;28;20055;-45
2021/05/24 11:26:20;;;;;;;;;;;;;;;24.00;24.84;99904.97;5055529;28;20465;-51
2021/05/24 11:29:22;;;;;;;3.40;0.73;;;;;;;23.85;25.65;99919.66;5057091;28;19916;-46
2021/05/24 11:31:56;;;;;;;1.98;0.70;;;;;;;24.03;25.68;99918.22;5051249;28;20123;-48
2021/05/24 11:34:34;;;;;;;2.55;0.63;;;;;;;23.83;25.70;99856.16;5068191;28;20033;-52
2021/05/24 11:37:05;;;;;;;2.83;0.77;;;;;;;24.27;24.94;99873.00;5060461;28;20125;-50